createdAt,value
2022-12-20T00:01:54.350Z,7.57
2022-12-20T00:03:58.417Z,7.47
2022-12-20T00:06:05.596Z,7.95
2022-12-20T00:08:08.547Z,7.95
2022-12-20T00:10:11.953Z,7.43
2022-12-20T00:12:18.108Z,6.68
2022-12-20T00:14:25.898Z,7.15
2022-12-20T00:16:29.490Z,6.45
2022-12-20T00:18:38.821Z,7.38
2022-12-20T00:20:41.422Z,6.75
2022-12-20T00:22:44.885Z,7.50
2022-12-20T00:24:47.756Z,7.13
2022-12-20T00:26:50.385Z,6.13
2022-12-20T00:28:59.679Z,6.13
2022-12-20T00:31:21.790Z,6.35
2022-12-20T00:33:24.633Z,6.15
2022-12-20T00:35:27.169Z,5.68
2022-12-20T00:37:29.927Z,6.05
2022-12-20T00:39:32.602Z,6.28
2022-12-20T00:41:35.930Z,6.22
2022-12-20T00:43:39.733Z,6.60
2022-12-20T00:45:42.340Z,5.80
2022-12-20T00:47:47.519Z,5.93
2022-12-20T00:49:55.911Z,5.75
2022-12-20T00:51:58.356Z,5.88
2022-12-20T00:54:01.308Z,5.95
2022-12-20T00:56:07.930Z,5.78
2022-12-20T00:58:10.560Z,5.93
2022-12-20T01:00:14.169Z,5.88
2022-12-20T01:02:17.257Z,5.43
2022-12-20T01:04:22.843Z,5.05
2022-12-20T01:06:25.537Z,5.60
2022-12-20T01:08:30.235Z,5.50
2022-12-20T01:10:33.921Z,5.03
2022-12-20T01:12:36.281Z,4.97
2022-12-20T01:14:40.980Z,5.20
2022-12-20T01:16:50.746Z,5.25
2022-12-20T01:18:53.498Z,5.28
2022-12-20T01:21:04.816Z,5.00
2022-12-20T01:23:08.745Z,5.10
2022-12-20T01:25:14.582Z,4.90
2022-12-20T01:27:17.264Z,4.85
2022-12-20T01:29:20.336Z,5.97
2022-12-20T01:31:34.820Z,5.32
2022-12-20T01:33:38.260Z,4.90
2022-12-20T01:35:41.121Z,5.47
2022-12-20T01:37:46.493Z,4.65
2022-12-20T01:39:49.105Z,5.10
2022-12-20T01:41:51.870Z,5.68
2022-12-20T01:43:56.704Z,5.18
2022-12-20T01:45:59.321Z,5.15
2022-12-20T01:48:04.649Z,4.65
2022-12-20T01:50:09.308Z,5.40
2022-12-20T01:52:15.789Z,5.43
2022-12-20T01:54:26.512Z,5.47
2022-12-20T01:56:31.708Z,5.95
2022-12-20T01:58:35.460Z,5.10
2022-12-20T02:00:37.983Z,6.13
2022-12-20T02:02:41.977Z,4.85
2022-12-20T02:04:50.987Z,4.93
2022-12-20T02:06:53.374Z,5.10
2022-12-20T02:09:00.726Z,5.05
2022-12-20T02:13:32.240Z,4.60
2022-12-20T02:15:45.336Z,4.90
2022-12-20T02:17:57.792Z,4.70
2022-12-20T02:20:32.683Z,5.28
2022-12-20T02:22:48.299Z,4.47
2022-12-20T02:25:17.275Z,4.85
2022-12-20T02:27:49.075Z,4.43
2022-12-20T02:30:14.300Z,4.68
2022-12-20T02:32:24.943Z,5.38
2022-12-20T02:34:29.644Z,5.13
2022-12-20T02:38:36.132Z,4.90
2022-12-20T02:40:41.747Z,4.95
2022-12-20T02:42:45.407Z,5.38
2022-12-20T02:45:11.140Z,4.88
2022-12-20T02:47:21.369Z,4.85
2022-12-20T02:49:29.329Z,4.57
2022-12-20T02:51:35.462Z,5.22
2022-12-20T02:53:43.137Z,4.70
2022-12-20T02:55:55.208Z,4.68
2022-12-20T02:58:02.850Z,5.00
2022-12-20T03:00:10.113Z,5.03
2022-12-20T03:02:23.529Z,5.55
2022-12-20T03:04:28.937Z,5.60
2022-12-20T03:06:32.214Z,5.65
2022-12-20T03:08:48.627Z,4.80
2022-12-20T03:10:53.526Z,5.85
2022-12-20T03:12:56.323Z,5.75
2022-12-20T03:15:02.879Z,5.60
2022-12-20T03:17:08.871Z,5.95
2022-12-20T03:19:16.779Z,6.32
2022-12-20T03:21:19.513Z,5.82
2022-12-20T03:23:22.336Z,5.80
2022-12-20T03:25:26.761Z,5.95
2022-12-20T03:29:35.069Z,5.57
2022-12-20T03:33:47.443Z,6.25
2022-12-20T03:35:52.515Z,6.03
2022-12-20T03:37:55.768Z,5.85
2022-12-20T03:40:00.821Z,12.73
2022-12-20T03:42:03.455Z,6.97
2022-12-20T03:44:08.864Z,6.43
2022-12-20T03:46:12.491Z,7.07
2022-12-20T03:48:17.838Z,7.28
2022-12-20T03:50:20.489Z,8.05
2022-12-20T03:52:25.946Z,9.85
2022-12-20T03:54:28.700Z,7.38
2022-12-20T03:56:43.388Z,7.07
2022-12-20T03:58:48.819Z,7.00
2022-12-20T04:00:53.899Z,7.45
2022-12-20T04:03:16.958Z,6.57
2022-12-20T04:05:21.326Z,7.90
2022-12-20T04:07:26.688Z,7.00
2022-12-20T04:09:30.078Z,7.82
2022-12-20T04:11:40.137Z,7.13
2022-12-20T04:13:48.450Z,8.40
2022-12-20T04:15:54.159Z,7.45
2022-12-20T04:18:04.631Z,7.75
2022-12-20T04:20:19.900Z,8.45
2022-12-20T04:22:49.528Z,7.03
2022-12-20T04:24:52.071Z,7.88
2022-12-20T04:27:04.652Z,7.10
2022-12-20T04:29:09.749Z,7.75
2022-12-20T04:31:16.106Z,8.63
2022-12-20T04:33:21.533Z,8.88
2022-12-20T04:35:24.851Z,7.88
2022-12-20T04:37:27.896Z,7.88
2022-12-20T04:39:35.139Z,8.27
2022-12-20T04:41:53.714Z,9.35
2022-12-20T04:43:57.667Z,8.85
2022-12-20T04:46:07.499Z,8.63
2022-12-20T04:48:46.159Z,9.30
2022-12-20T04:50:33.102Z,9.05
2022-12-20T04:52:57.704Z,8.65
2022-12-20T04:55:04.306Z,8.63
2022-12-20T04:57:09.991Z,8.82
2022-12-20T04:59:12.811Z,9.00
2022-12-20T05:01:24.463Z,9.23
2022-12-20T05:03:28.516Z,8.73
2022-12-20T05:05:34.711Z,9.43
2022-12-20T05:07:37.457Z,9.25
2022-12-20T05:09:39.987Z,8.50
2022-12-20T05:11:45.611Z,9.70
2022-12-20T05:13:48.256Z,8.80
2022-12-20T05:15:54.692Z,9.65
2022-12-20T05:18:03.547Z,9.10
2022-12-20T05:20:18.563Z,8.52
2022-12-20T05:22:40.992Z,8.82
2022-12-20T05:25:05.354Z,9.73
2022-12-20T05:27:15.403Z,8.52
2022-12-20T05:29:18.742Z,10.35
2022-12-20T05:31:21.707Z,8.77
2022-12-20T05:33:28.927Z,9.13
2022-12-20T05:35:56.099Z,8.73
2022-12-20T05:38:18.988Z,8.48
2022-12-20T05:40:41.767Z,10.02
2022-12-20T05:43:08.652Z,7.55
2022-12-20T05:45:36.897Z,7.38
2022-12-20T05:47:46.290Z,9.88
2022-12-20T05:49:50.122Z,7.90
2022-12-20T05:51:52.870Z,7.00
2022-12-20T05:54:01.447Z,8.23
2022-12-20T05:56:21.427Z,11.02
2022-12-20T05:58:27.149Z,7.43
2022-12-20T06:00:34.337Z,7.47
2022-12-20T06:02:37.931Z,7.97
2022-12-20T06:04:41.455Z,7.78
2022-12-20T06:06:53.450Z,7.68
2022-12-20T06:08:56.385Z,7.00
2022-12-20T06:11:18.347Z,8.55
2022-12-20T06:13:31.477Z,6.80
2022-12-20T06:15:34.470Z,7.13
2022-12-20T06:17:38.287Z,7.35
2022-12-20T06:21:46.917Z,5.97
2022-12-20T06:23:53.708Z,6.65
2022-12-20T06:25:59.503Z,6.70
2022-12-20T06:28:07.696Z,6.28
2022-12-20T06:30:16.277Z,6.97
2022-12-20T06:32:57.505Z,6.60
2022-12-20T06:35:00.489Z,7.03
2022-12-20T06:39:11.361Z,6.43
2022-12-20T06:41:22.789Z,6.40
2022-12-20T06:43:28.659Z,6.80
2022-12-20T06:45:39.439Z,6.50
2022-12-20T06:47:44.870Z,5.85
2022-12-20T06:49:47.708Z,6.22
2022-12-20T06:51:57.962Z,5.85
2022-12-20T06:54:24.425Z,15.30
2022-12-20T06:56:27.243Z,7.32
2022-12-20T06:58:31.934Z,7.68
2022-12-20T07:00:37.263Z,12.43
2022-12-20T07:02:40.128Z,7.50
2022-12-20T07:04:42.988Z,7.82
2022-12-20T07:06:45.730Z,28.70
2022-12-20T07:08:51.108Z,8.80
2022-12-20T07:10:57.195Z,8.45
2022-12-20T07:13:00.133Z,9.32
2022-12-20T07:15:02.915Z,13.55
2022-12-20T07:17:08.686Z,9.68
2022-12-20T07:19:12.404Z,10.15
2022-12-20T07:21:18.039Z,10.20
2022-12-20T07:23:20.868Z,10.63
2022-12-20T07:25:23.592Z,11.70
2022-12-20T07:27:27.360Z,10.55
2022-12-20T07:29:30.418Z,9.45
2022-12-20T07:31:33.266Z,12.40
2022-12-20T07:33:41.432Z,9.65
2022-12-20T07:35:49.583Z,10.90
2022-12-20T07:37:58.121Z,12.98
2022-12-20T07:40:00.845Z,10.70
2022-12-20T07:42:03.656Z,10.38
2022-12-20T07:44:19.446Z,11.27
2022-12-20T07:46:22.398Z,10.85
2022-12-20T07:48:25.288Z,11.27
2022-12-20T07:50:35.392Z,9.98
2022-12-20T07:52:39.196Z,9.23
2022-12-20T07:54:46.495Z,11.35
2022-12-20T07:56:53.227Z,11.75
2022-12-20T07:59:01.178Z,11.05
2022-12-20T08:01:04.999Z,11.95
2022-12-20T08:03:18.869Z,10.70
2022-12-20T08:05:22.771Z,15.43
2022-12-20T08:07:30.077Z,11.10
2022-12-20T08:09:38.561Z,10.48
2022-12-20T08:11:43.005Z,11.27
2022-12-20T08:13:47.485Z,10.43
2022-12-20T08:15:51.503Z,13.85
2022-12-20T08:17:54.317Z,12.00
2022-12-20T08:20:14.546Z,14.18
2022-12-20T08:22:17.322Z,11.88
2022-12-20T08:24:22.685Z,10.10
2022-12-20T08:26:27.761Z,10.48
2022-12-20T08:28:30.510Z,10.63
2022-12-20T08:30:38.575Z,10.65
2022-12-20T08:32:41.307Z,13.27
2022-12-20T08:36:53.224Z,9.68
2022-12-20T08:38:56.676Z,8.80
2022-12-20T08:41:06.274Z,9.55
2022-12-20T08:43:10.562Z,9.32
2022-12-20T08:47:17.261Z,7.38
2022-12-20T08:49:21.942Z,10.80
2022-12-20T08:51:24.924Z,8.43
2022-12-20T08:53:28.456Z,8.35
2022-12-20T08:55:45.722Z,8.40
2022-12-20T08:57:53.711Z,8.32
2022-12-20T08:59:56.358Z,8.65
2022-12-20T09:02:01.210Z,8.13
2022-12-20T09:04:10.511Z,8.00
2022-12-20T09:06:15.889Z,7.28
2022-12-20T09:08:18.776Z,7.15
2022-12-20T09:10:23.549Z,6.65
2022-12-20T09:12:37.794Z,7.07
2022-12-20T09:14:43.536Z,6.72
2022-12-20T09:16:46.382Z,6.43
2022-12-20T09:18:50.075Z,6.40
2022-12-20T09:20:54.531Z,6.30
2022-12-20T09:22:58.897Z,6.28
2022-12-20T09:25:01.685Z,6.15
2022-12-20T09:27:04.588Z,6.40
2022-12-20T09:29:07.475Z,6.93
2022-12-20T09:31:14.993Z,6.70
2022-12-20T09:33:17.820Z,5.97
2022-12-20T09:35:23.174Z,5.72
2022-12-20T09:37:25.939Z,5.88
2022-12-20T09:39:29.453Z,5.57
2022-12-20T09:41:37.472Z,5.80
2022-12-20T09:43:45.944Z,6.20
2022-12-20T09:45:52.501Z,7.35
2022-12-20T09:47:58.138Z,5.68
2022-12-20T09:50:01.263Z,5.80
2022-12-20T09:52:22.743Z,6.43
2022-12-20T09:54:38.208Z,6.03
2022-12-20T09:56:47.079Z,4.95
2022-12-20T09:59:01.044Z,7.28
2022-12-20T10:01:23.037Z,5.97
2022-12-20T10:03:38.660Z,5.78
2022-12-20T10:05:50.386Z,4.93
2022-12-20T10:07:59.898Z,5.93
2022-12-20T10:10:38.213Z,5.88
2022-12-20T10:12:50.763Z,5.35
2022-12-20T10:15:06.157Z,5.40
2022-12-20T10:17:14.365Z,5.75
2022-12-20T10:19:42.883Z,5.95
2022-12-20T10:21:52.585Z,5.80
2022-12-20T10:24:01.304Z,6.18
2022-12-20T10:26:11.177Z,6.20
2022-12-20T10:28:20.067Z,11.45
2022-12-20T10:30:25.454Z,9.07
2022-12-20T10:32:28.747Z,6.32
2022-12-20T10:34:38.310Z,5.70
2022-12-20T10:36:44.119Z,6.45
2022-12-20T10:38:52.891Z,6.30
2022-12-20T10:43:40.507Z,5.18
2022-12-20T10:45:56.925Z,5.88
2022-12-20T10:48:01.494Z,5.30
2022-12-20T10:50:27.756Z,6.03
2022-12-20T10:52:32.143Z,14.52
2022-12-20T10:54:37.670Z,5.63
2022-12-20T10:56:40.329Z,6.55
2022-12-20T10:58:43.397Z,6.13
2022-12-20T11:00:47.452Z,9.93
2022-12-20T11:03:05.705Z,6.28
2022-12-20T11:05:23.345Z,5.95
2022-12-20T11:07:32.183Z,7.70
2022-12-20T11:09:36.571Z,6.50
2022-12-20T11:11:39.334Z,6.75
2022-12-20T11:13:42.657Z,7.00
2022-12-20T11:15:49.847Z,6.57
2022-12-20T11:17:56.780Z,7.07
2022-12-20T11:20:09.392Z,7.45
2022-12-20T11:22:21.297Z,7.45
2022-12-20T11:24:34.110Z,6.93
2022-12-20T11:26:51.649Z,7.75
2022-12-20T11:29:12.141Z,9.75
2022-12-20T11:31:21.544Z,7.35
2022-12-20T11:33:45.798Z,8.32
2022-12-20T11:35:54.636Z,11.15
2022-12-20T11:38:12.896Z,6.80
2022-12-20T11:40:29.600Z,6.65
2022-12-20T11:42:51.664Z,6.88
2022-12-20T11:45:09.812Z,7.60
2022-12-20T11:47:30.727Z,7.97
2022-12-20T11:49:50.417Z,9.05
2022-12-20T11:52:00.232Z,7.28
2022-12-20T11:54:17.901Z,7.72
2022-12-20T11:56:44.328Z,7.65
2022-12-20T11:58:52.710Z,7.28
2022-12-20T12:01:04.149Z,8.05
2022-12-20T12:03:13.062Z,6.82
2022-12-20T12:05:21.328Z,8.13
2022-12-20T12:07:28.879Z,7.35
2022-12-20T12:09:37.704Z,11.48
2022-12-20T12:12:10.381Z,12.25
2022-12-20T12:14:23.034Z,21.23
2022-12-20T12:16:30.475Z,10.05
2022-12-20T12:18:36.218Z,7.30
2022-12-20T12:20:50.135Z,8.95
2022-12-20T12:22:58.024Z,7.63
2022-12-20T12:25:08.440Z,7.53
2022-12-20T12:27:25.068Z,7.65
2022-12-20T12:31:42.440Z,14.93
2022-12-20T12:33:51.637Z,10.05
2022-12-20T12:36:20.102Z,10.82
2022-12-20T12:39:02.484Z,9.52
2022-12-20T12:41:53.945Z,9.07
2022-12-20T12:44:24.763Z,8.67
2022-12-20T12:46:31.263Z,9.50
2022-12-20T12:48:39.543Z,8.10
2022-12-20T12:50:47.126Z,9.77
2022-12-20T12:52:52.470Z,9.85
2022-12-20T12:54:55.193Z,16.02
2022-12-20T12:57:03.466Z,7.60
2022-12-20T12:59:35.151Z,9.93
2022-12-20T13:01:49.978Z,8.75
2022-12-20T13:06:44.376Z,9.30
2022-12-20T13:09:09.033Z,10.48
2022-12-20T13:11:28.370Z,9.80
2022-12-20T13:13:31.266Z,11.93
2022-12-20T13:15:52.233Z,10.10
2022-12-20T13:17:56.908Z,10.07
2022-12-20T13:19:59.842Z,16.08
2022-12-20T13:22:22.190Z,8.80
2022-12-20T13:24:38.251Z,10.32
2022-12-20T13:26:52.125Z,17.30
2022-12-20T13:28:55.049Z,9.20
2022-12-20T13:31:28.092Z,10.82
2022-12-20T13:33:44.441Z,13.65
2022-12-20T13:36:33.278Z,9.73
2022-12-20T13:39:01.134Z,13.30
2022-12-20T13:41:45.746Z,10.10
2022-12-20T13:43:53.184Z,12.68
2022-12-20T13:46:13.491Z,9.63
2022-12-20T13:48:20.292Z,10.95
2022-12-20T13:50:37.105Z,12.75
2022-12-20T13:52:45.115Z,18.23
2022-12-20T13:54:50.350Z,9.98
2022-12-20T13:56:53.401Z,9.10
2022-12-20T13:58:57.806Z,11.60
2022-12-20T14:01:06.576Z,18.55
2022-12-20T14:03:20.997Z,10.85
2022-12-20T14:05:28.722Z,12.77
2022-12-20T14:07:34.374Z,10.77
2022-12-20T14:09:38.708Z,10.00
2022-12-20T14:13:53.851Z,10.55
2022-12-20T14:15:57.723Z,10.52
2022-12-20T14:18:07.047Z,9.63
2022-12-20T14:20:17.517Z,10.35
2022-12-20T14:22:21.664Z,9.52
2022-12-20T14:26:33.049Z,11.05
2022-12-20T14:28:39.039Z,9.55
2022-12-20T14:30:44.913Z,13.07
2022-12-20T14:32:50.053Z,11.35
2022-12-20T14:34:54.051Z,10.23
2022-12-20T14:37:27.548Z,11.98
2022-12-20T14:39:34.891Z,10.55
2022-12-20T14:41:39.237Z,12.73
2022-12-20T14:45:44.416Z,15.55
2022-12-20T14:47:51.615Z,10.57
2022-12-20T14:49:57.894Z,11.02
2022-12-20T14:52:15.062Z,11.75
2022-12-20T14:54:56.861Z,22.70
2022-12-20T14:56:51.546Z,16.98
2022-12-20T14:59:05.205Z,11.90
2022-12-20T15:01:21.456Z,13.43
2022-12-20T15:03:25.845Z,11.95
2022-12-20T15:05:48.778Z,12.40
2022-12-20T15:07:51.738Z,11.85
2022-12-20T15:09:54.289Z,12.23
2022-12-20T15:12:01.347Z,13.60
2022-12-20T15:14:21.237Z,16.20
2022-12-20T15:16:25.754Z,11.43
2022-12-20T15:18:28.846Z,13.77
2022-12-20T15:20:33.303Z,12.55
2022-12-20T15:22:36.001Z,11.02
2022-12-20T15:24:38.716Z,12.85
2022-12-20T15:26:41.683Z,12.98
2022-12-20T15:28:47.332Z,11.90
2022-12-20T15:30:52.171Z,12.98
2022-12-20T15:32:56.085Z,12.43
2022-12-20T15:34:58.969Z,13.93
2022-12-20T15:37:02.711Z,14.02
2022-12-20T15:39:13.553Z,17.13
2022-12-20T15:41:21.652Z,14.15
2022-12-20T15:43:25.125Z,13.32
2022-12-20T15:45:33.964Z,14.30
2022-12-20T15:47:36.545Z,15.02
2022-12-20T15:49:46.309Z,14.40
2022-12-20T15:51:54.254Z,13.75
2022-12-20T15:55:59.581Z,14.63
2022-12-20T15:58:02.448Z,12.90
2022-12-20T16:00:12.411Z,13.63
2022-12-20T16:02:23.534Z,15.05
2022-12-20T16:04:50.431Z,13.07
2022-12-20T16:09:50.036Z,15.82
2022-12-20T16:12:06.523Z,17.05
2022-12-20T16:14:15.711Z,14.95
2022-12-20T16:16:19.913Z,12.57
2022-12-20T16:18:37.211Z,17.60
2022-12-20T16:20:40.506Z,15.80
2022-12-20T16:22:43.169Z,15.02
2022-12-20T16:24:46.334Z,14.77
2022-12-20T16:26:51.691Z,14.70
2022-12-20T16:28:56.189Z,14.95
2022-12-20T16:30:59.867Z,15.13
2022-12-20T16:33:03.789Z,15.60
2022-12-20T16:35:17.956Z,16.13
2022-12-20T16:37:21.103Z,15.70
2022-12-20T16:39:23.649Z,17.60
2022-12-20T16:41:30.217Z,15.77
2022-12-20T16:43:37.068Z,15.88
2022-12-20T16:45:45.140Z,16.05
2022-12-20T16:47:48.585Z,16.27
2022-12-20T16:51:59.230Z,16.42
2022-12-20T16:54:19.482Z,16.02
2022-12-20T16:56:23.297Z,18.33
2022-12-20T16:58:52.404Z,15.07
2022-12-20T17:00:48.806Z,17.00
2022-12-20T17:02:53.414Z,17.40
2022-12-20T17:04:56.358Z,16.05
2022-12-20T17:07:01.629Z,16.27
2022-12-20T17:11:25.053Z,17.17
2022-12-20T17:15:32.082Z,18.52
2022-12-20T17:17:35.098Z,18.38
2022-12-20T17:19:39.101Z,19.98
2022-12-20T17:24:08.985Z,18.65
2022-12-20T17:26:14.915Z,17.70
2022-12-20T17:28:17.600Z,18.17
2022-12-20T17:30:20.543Z,18.48
2022-12-20T17:32:27.662Z,16.52
2022-12-20T17:34:31.424Z,20.75
2022-12-20T17:36:37.951Z,17.88
2022-12-20T17:38:41.303Z,19.42
2022-12-20T17:40:46.723Z,18.02
2022-12-20T17:42:49.389Z,17.92
2022-12-20T17:44:51.933Z,17.40
2022-12-20T17:46:56.525Z,18.35
2022-12-20T17:48:59.433Z,18.75
2022-12-20T17:51:02.997Z,18.42
2022-12-20T17:53:05.764Z,17.77
2022-12-20T17:55:15.911Z,18.42
2022-12-20T17:57:21.135Z,18.45
2022-12-20T17:59:25.968Z,20.75
2022-12-20T18:01:29.962Z,17.42
2022-12-20T18:04:02.770Z,18.70
2022-12-20T18:05:55.411Z,18.23
2022-12-20T18:07:57.903Z,18.08
2022-12-20T18:10:00.800Z,18.88
2022-12-20T18:12:04.865Z,17.60
2022-12-20T18:14:10.659Z,17.85
2022-12-20T18:16:14.619Z,18.52
2022-12-20T18:18:17.050Z,17.00
2022-12-20T18:20:19.460Z,31.67
2022-12-20T18:22:23.813Z,18.52
2022-12-20T18:24:29.135Z,18.08
2022-12-20T18:26:32.671Z,18.65
2022-12-20T18:28:35.451Z,18.33
2022-12-20T18:30:40.525Z,17.52
2022-12-20T18:32:45.982Z,18.80
2022-12-20T18:34:48.987Z,17.05
2022-12-20T18:36:51.433Z,18.27
2022-12-20T18:38:54.803Z,18.83
2022-12-20T18:41:00.123Z,18.20
2022-12-20T18:43:06.105Z,18.10
2022-12-20T18:45:11.319Z,17.35
2022-12-20T18:47:16.357Z,16.90
2022-12-20T18:49:19.158Z,17.23
2022-12-20T18:51:24.978Z,15.20
2022-12-20T18:53:31.416Z,16.20
2022-12-20T18:55:36.752Z,14.90
2022-12-20T18:57:39.186Z,17.02
2022-12-20T18:59:41.764Z,14.98
2022-12-20T19:01:44.637Z,14.48
2022-12-20T19:03:50.213Z,14.00
2022-12-20T19:05:53.401Z,14.25
2022-12-20T19:07:56.010Z,13.90
2022-12-20T19:09:58.590Z,14.40
2022-12-20T19:12:00.916Z,13.63
2022-12-20T19:14:03.938Z,13.82
2022-12-20T19:16:08.755Z,14.80
2022-12-20T19:18:11.192Z,14.23
2022-12-20T19:20:18.752Z,13.63
2022-12-20T19:22:21.210Z,14.13
2022-12-20T19:24:25.755Z,13.90
2022-12-20T19:26:29.923Z,14.25
2022-12-20T19:28:32.544Z,14.02
2022-12-20T19:30:34.990Z,14.50
2022-12-20T19:32:37.540Z,15.52
2022-12-20T19:34:39.979Z,14.23
2022-12-20T19:36:46.663Z,13.98
2022-12-20T19:38:52.850Z,15.27
2022-12-20T19:40:55.521Z,13.88
2022-12-20T19:42:57.953Z,13.52
2022-12-20T19:45:00.388Z,15.13
2022-12-20T19:47:04.787Z,15.13
2022-12-20T19:49:07.570Z,15.43
2022-12-20T19:51:12.575Z,14.35
2022-12-20T19:53:18.437Z,15.50
2022-12-20T19:55:23.668Z,15.57
2022-12-20T19:57:26.102Z,17.13
2022-12-20T19:59:30.889Z,16.60
2022-12-20T20:01:35.525Z,15.85
2022-12-20T20:03:38.975Z,16.67
2022-12-20T20:05:43.991Z,17.57
2022-12-20T20:07:50.931Z,16.30
2022-12-20T20:09:55.951Z,16.20
2022-12-20T20:11:58.287Z,17.25
2022-12-20T20:14:02.500Z,16.05
2022-12-20T20:18:08.025Z,16.42
2022-12-20T20:20:11.226Z,15.68
2022-12-20T20:22:19.203Z,17.73
2022-12-20T20:24:25.373Z,16.23
2022-12-20T20:26:31.846Z,17.13
2022-12-20T20:28:41.903Z,16.58
2022-12-20T20:30:49.288Z,17.48
2022-12-20T20:32:51.816Z,17.80
2022-12-20T20:34:54.370Z,15.95
2022-12-20T20:36:59.070Z,17.23
2022-12-20T20:39:01.374Z,16.27
2022-12-20T20:41:03.909Z,18.02
2022-12-20T20:43:08.954Z,16.52
2022-12-20T20:45:12.009Z,17.02
2022-12-20T20:47:14.588Z,17.10
2022-12-20T20:49:18.238Z,16.65
2022-12-20T20:51:20.835Z,17.95
2022-12-20T20:53:29.405Z,17.25
2022-12-20T20:55:35.664Z,15.57
2022-12-20T20:57:38.332Z,17.30
2022-12-20T20:59:44.451Z,16.50
2022-12-20T21:01:48.011Z,16.67
2022-12-20T21:03:50.660Z,15.77
2022-12-20T21:06:32.909Z,16.15
2022-12-20T21:08:16.175Z,16.05
2022-12-20T21:10:19.181Z,16.33
2022-12-20T21:12:24.022Z,17.02
2022-12-20T21:15:00.517Z,15.57
2022-12-20T21:16:51.673Z,16.42
2022-12-20T21:18:56.409Z,17.42
2022-12-20T21:20:58.931Z,16.77
2022-12-20T21:23:01.638Z,17.48
2022-12-20T21:25:05.654Z,16.17
2022-12-20T21:27:08.021Z,17.98
2022-12-20T21:29:13.502Z,15.68
2022-12-20T21:31:17.455Z,16.85
2022-12-20T21:33:22.555Z,17.67
2022-12-20T21:35:41.803Z,16.42
2022-12-20T21:37:44.317Z,15.95
2022-12-20T21:39:47.743Z,17.07
2022-12-20T21:41:50.786Z,16.35
2022-12-20T21:43:56.507Z,16.80
2022-12-20T21:46:02.300Z,17.55
2022-12-20T21:48:04.962Z,15.77
2022-12-20T21:50:11.181Z,16.83
2022-12-20T21:52:13.865Z,16.42
2022-12-20T21:54:18.170Z,15.48
2022-12-20T21:56:21.730Z,16.52
2022-12-20T21:58:25.285Z,17.98
2022-12-20T22:00:27.748Z,15.73
2022-12-20T22:02:31.448Z,15.43
2022-12-20T22:04:34.659Z,16.13
2022-12-20T22:06:49.149Z,15.38
2022-12-20T22:08:52.288Z,17.10
2022-12-20T22:11:01.657Z,14.95
2022-12-20T22:13:04.674Z,15.88
2022-12-20T22:15:08.572Z,15.77
2022-12-20T22:17:11.075Z,15.13
2022-12-20T22:19:14.890Z,16.45
2022-12-20T22:21:19.894Z,15.30
2022-12-20T22:23:25.066Z,16.10
2022-12-20T22:25:28.401Z,16.55
2022-12-20T22:27:30.945Z,14.10
2022-12-20T22:29:33.353Z,15.52
2022-12-20T22:31:36.449Z,17.45
2022-12-20T22:33:39.534Z,15.43
2022-12-20T22:35:42.331Z,14.17
2022-12-20T22:37:44.837Z,16.23
2022-12-20T22:39:50.066Z,15.27
2022-12-20T22:41:52.573Z,17.15
2022-12-20T22:43:58.845Z,17.42
2022-12-20T22:46:16.989Z,16.88
2022-12-20T22:48:19.476Z,19.05
2022-12-20T22:50:22.146Z,16.67
2022-12-20T22:52:24.939Z,16.70
2022-12-20T22:58:39.901Z,16.48
2022-12-20T23:00:42.257Z,14.95
2022-12-20T23:02:45.094Z,15.77
2022-12-20T23:04:53.509Z,16.33
2022-12-20T23:06:55.947Z,16.35
2022-12-20T23:08:58.457Z,17.15
2022-12-20T23:11:20.667Z,17.33
2022-12-20T23:13:47.966Z,16.85
2022-12-20T23:15:50.689Z,14.88
2022-12-20T23:17:56.044Z,16.77
2022-12-20T23:20:17.295Z,16.65
2022-12-20T23:22:39.351Z,15.68
2022-12-20T23:24:41.967Z,16.33
2022-12-20T23:26:44.782Z,15.27
2022-12-20T23:28:49.922Z,15.98
2022-12-20T23:30:52.343Z,16.20
2022-12-20T23:33:00.409Z,16.30
2022-12-20T23:35:10.038Z,15.75
2022-12-20T23:37:14.936Z,15.90
2022-12-20T23:39:17.622Z,14.88
2022-12-20T23:41:20.153Z,16.33
2022-12-20T23:43:22.624Z,15.70
2022-12-20T23:45:30.467Z,15.88
2022-12-20T23:47:33.263Z,16.15
2022-12-20T23:49:36.235Z,14.68
2022-12-20T23:51:39.528Z,15.73
2022-12-20T23:53:42.286Z,15.80
2022-12-20T23:55:58.271Z,17.10
2022-12-20T23:58:00.687Z,15.25
